Time;durP1;ratioP1;P1;durP2;ratioP2;P2;SDS_P1;SDS_P2;PMS_P1;PMS_P2;Temp;Humidity;BMP_temperature;BMP_pressure;BME280_temperature;BME280_humidity;BME280_pressure;Samples;Min_cycle;Max_cycle;Signal;HPM_P1;HPM_P2
2022/09/12 00:00:40;;;;;;;4.60;4.30;;;;;;;;;;5050149;28;20245;-48
2022/09/12 00:03:06;;;;;;;4.87;4.57;;;;;;;;;;5050037;28;20196;-47
2022/09/12 00:05:32;;;;;;;4.50;4.10;;;;;;;;;;5050844;28;20766;-47
2022/09/12 00:07:58;;;;;;;4.27;3.97;;;;;;;;;;5050229;28;20273;-47
2022/09/12 00:10:24;;;;;;;4.67;4.27;;;;;;;;;;5046633;28;20266;-47
2022/09/12 00:12:51;;;;;;;4.57;4.17;;;;;;;;;;5048382;28;20230;-47
2022/09/12 00:15:17;;;;;;;4.23;3.80;;;;;;;;;;5048469;28;20283;-48
2022/09/12 00:17:44;;;;;;;4.80;4.40;;;;;;;;;;5049992;28;20204;-47
2022/09/12 00:20:10;;;;;;;5.23;4.80;;;;;;;;;;5051213;28;20204;-47
2022/09/12 00:22:37;;;;;;;6.23;4.87;;;;;;;;;;5050111;28;20291;-48
2022/09/12 00:25:03;;;;;;;5.17;4.67;;;;;;;;;;5050075;28;20246;-47
2022/09/12 00:27:29;;;;;;;5.13;4.63;;;;;;;;;;5050681;28;20568;-47
2022/09/12 00:29:55;;;;;;;5.50;5.03;;;;;;;;;;5050548;28;20200;-47
2022/09/12 00:32:21;;;;;;;5.27;4.83;;;;;;;;;;5050629;28;20234;-47
2022/09/12 00:34:49;;;;;;;7.03;4.90;;;;;;;;;;5050197;28;20184;-48
2022/09/12 00:37:15;;;;;;;5.40;5.00;;;;;;;;;;5050260;28;20196;-47
2022/09/12 00:39:41;;;;;;;6.57;6.03;;;;;;;;;;5050218;28;20211;-48
2022/09/12 00:42:08;;;;;;;6.07;5.47;;;;;;;;;;5050662;28;20666;-48
2022/09/12 00:44:46;;;;;;;5.57;5.07;;;;;;;;;;5050293;28;20715;-47
2022/09/12 00:47:14;;;;;;;5.60;5.00;;;;;;;;;;5050296;28;20568;-47
2022/09/12 00:49:44;;;;;;;5.00;4.60;;;;;;;;;;5050463;28;20570;-47
2022/09/12 00:52:12;;;;;;;5.10;4.70;;;;;;;;;;5050281;28;20200;-47
2022/09/12 00:54:42;;;;;;;5.10;4.70;;;;;;;;;;5051960;28;20224;-47
2022/09/12 00:57:10;;;;;;;5.10;4.70;;;;;;;;;;5053505;28;20230;-48
2022/09/12 00:59:38;;;;;;;5.00;4.60;;;;;;;;;;5053131;28;20200;-47
2022/09/12 01:02:04;;;;;;;5.50;5.10;;;;;;;;;;5053427;28;20724;-47
2022/09/12 01:04:30;;;;;;;5.70;5.20;;;;;;;;;;5053829;28;20587;-47
2022/09/12 01:06:57;;;;;;;5.20;4.80;;;;;;;;;;5053560;28;20231;-46
2022/09/12 01:09:25;;;;;;;5.33;4.93;;;;;;;;;;5053577;28;20690;-46
2022/09/12 01:11:52;;;;;;;4.80;4.40;;;;;;;;;;5053609;28;20257;-46
2022/09/12 01:14:18;;;;;;;4.93;4.43;;;;;;;;;;5053238;28;20251;-47
2022/09/12 01:16:45;;;;;;;4.90;4.50;;;;;;;;;;5053299;28;20689;-46
2022/09/12 01:19:19;;;;;;;4.70;4.30;;;;;;;;;;5052863;28;20208;-47
2022/09/12 01:21:50;;;;;;;4.83;4.43;;;;;;;;;;5053559;28;20433;-47
2022/09/12 01:24:34;;;;;;;4.77;4.30;;;;;;;;;;5053714;28;20210;-46
2022/09/12 01:27:16;;;;;;;4.40;4.00;;;;;;;;;;5052579;28;20234;-47
2022/09/12 01:29:59;;;;;;;4.43;4.03;;;;;;;;;;5053282;28;20211;-47
2022/09/12 01:32:30;;;;;;;4.40;4.10;;;;;;;;;;5053161;28;20211;-47
2022/09/12 01:35:02;;;;;;;4.53;4.13;;;;;;;;;;5053407;28;20693;-47
2022/09/12 01:37:33;;;;;;;5.53;4.50;;;;;;;;;;5053318;28;20476;-47
2022/09/12 01:40:01;;;;;;;4.47;4.17;;;;;;;;;;5053514;28;20219;-48
2022/09/12 01:42:33;;;;;;;4.53;4.20;;;;;;;;;;5053501;28;20627;-52
2022/09/12 01:45:02;;;;;;;4.50;4.10;;;;;;;;;;5053316;28;20605;-47
2022/09/12 01:47:33;;;;;;;5.33;4.33;;;;;;;;;;5053393;28;20339;-47
2022/09/12 01:50:00;;;;;;;4.60;4.20;;;;;;;;;;5053363;28;20200;-47
2022/09/12 01:52:30;;;;;;;4.07;3.77;;;;;;;;;;5053447;28;20200;-47
2022/09/12 01:54:58;;;;;;;4.13;3.83;;;;;;;;;;5053167;28;20287;-47
2022/09/12 01:57:27;;;;;;;5.70;4.03;;;;;;;;;;5053118;28;20243;-47
2022/09/12 01:59:55;;;;;;;4.03;3.73;;;;;;;;;;5052861;28;20266;-47
2022/09/12 02:02:23;;;;;;;4.77;4.37;;;;;;;;;;5053159;28;20208;-47
2022/09/12 02:04:52;;;;;;;4.37;3.97;;;;;;;;;;5052445;28;20223;-47
2022/09/12 02:07:19;;;;;;;3.83;3.53;;;;;;;;;;5052454;28;20307;-48
2022/09/12 02:09:48;;;;;;;4.43;4.03;;;;;;;;;;5052516;28;20292;-47
2022/09/12 02:12:17;;;;;;;4.47;4.17;;;;;;;;;;5051622;28;20295;-48
2022/09/12 02:14:46;;;;;;;4.00;3.70;;;;;;;;;;5050823;28;20216;-47
2022/09/12 02:17:13;;;;;;;4.20;3.80;;;;;;;;;;5051163;28;20662;-47
2022/09/12 02:19:41;;;;;;;5.97;3.83;;;;;;;;;;5051206;28;20211;-47
2022/09/12 02:22:11;;;;;;;4.37;3.97;;;;;;;;;;5052417;28;20204;-47
2022/09/12 02:24:38;;;;;;;3.90;3.50;;;;;;;;;;5051821;28;20189;-47
2022/09/12 02:27:07;;;;;;;3.93;3.63;;;;;;;;;;5051953;28;20732;-47
2022/09/12 02:29:33;;;;;;;4.87;3.70;;;;;;;;;;5052674;28;20204;-49
2022/09/12 02:32:03;;;;;;;3.77;3.47;;;;;;;;;;5052209;28;20206;-48
2022/09/12 02:34:38;;;;;;;5.03;3.90;;;;;;;;;;5052272;28;20222;-48
2022/09/12 02:37:07;;;;;;;3.77;3.47;;;;;;;;;;5052211;28;20204;-48
2022/09/12 02:39:34;;;;;;;4.17;3.53;;;;;;;;;;5052346;28;20225;-48
2022/09/12 02:42:02;;;;;;;3.47;3.17;;;;;;;;;;5051907;28;20200;-48
2022/09/12 02:44:29;;;;;;;3.97;3.67;;;;;;;;;;5052247;28;20192;-48
2022/09/12 02:46:57;;;;;;;4.70;3.67;;;;;;;;;;5051742;28;20219;-48
2022/09/12 02:49:23;;;;;;;4.07;3.43;;;;;;;;;;5051796;28;20732;-48
2022/09/12 02:51:49;;;;;;;4.23;3.63;;;;;;;;;;5050972;28;20658;-48
2022/09/12 02:54:16;;;;;;;4.13;3.73;;;;;;;;;;5051616;28;20274;-48
2022/09/12 02:56:44;;;;;;;4.43;4.00;;;;;;;;;;5050565;28;20196;-48
2022/09/12 02:59:12;;;;;;;4.80;4.40;;;;;;;;;;5051109;28;20200;-48
2022/09/12 03:01:49;;;;;;;4.57;4.17;;;;;;;;;;5051519;28;20331;-48
2022/09/12 03:04:23;;;;;;;5.63;5.13;;;;;;;;;;5050842;28;20744;-48
2022/09/12 03:06:55;;;;;;;5.37;4.87;;;;;;;;;;5051136;28;20283;-48
2022/09/12 03:09:27;;;;;;;5.43;4.50;;;;;;;;;;5051494;28;20717;-48
2022/09/12 03:12:01;;;;;;;4.90;4.50;;;;;;;;;;5050903;28;20320;-49
2022/09/12 03:14:34;;;;;;;5.10;4.70;;;;;;;;;;5051408;28;20239;-48
2022/09/12 03:17:07;;;;;;;5.00;4.60;;;;;;;;;;5050697;28;20271;-48
2022/09/12 03:19:35;;;;;;;6.60;6.00;;;;;;;;;;5051277;28;20254;-48
2022/09/12 03:22:03;;;;;;;6.30;5.80;;;;;;;;;;5051764;28;20192;-48
2022/09/12 03:24:32;;;;;;;5.90;5.37;;;;;;;;;;5051403;28;20291;-48
2022/09/12 03:27:03;;;;;;;7.50;6.70;;;;;;;;;;5051366;28;20185;-48
2022/09/12 03:29:30;;;;;;;7.20;6.50;;;;;;;;;;5051581;28;20231;-48
2022/09/12 03:31:57;;;;;;;9.70;7.87;;;;;;;;;;5050935;28;20298;-48
2022/09/12 03:34:24;;;;;;;12.03;8.27;;;;;;;;;;5051131;28;20703;-48
2022/09/12 03:36:50;;;;;;;11.97;9.07;;;;;;;;;;5051325;28;20200;-48
2022/09/12 03:39:17;;;;;;;8.50;7.70;;;;;;;;;;5051080;28;20242;-48
2022/09/12 03:41:43;;;;;;;9.73;8.47;;;;;;;;;;5051295;28;20662;-48
2022/09/12 03:44:10;;;;;;;10.03;8.60;;;;;;;;;;5050614;28;20222;-48
2022/09/12 03:46:36;;;;;;;9.77;8.67;;;;;;;;;;5050978;28;20200;-48
2022/09/12 03:49:02;;;;;;;10.93;9.53;;;;;;;;;;5051081;28;20199;-48
2022/09/12 03:51:28;;;;;;;9.83;8.83;;;;;;;;;;5050897;28;20188;-48
2022/09/12 03:53:54;;;;;;;14.50;9.90;;;;;;;;;;5050440;28;20228;-47
2022/09/12 03:56:20;;;;;;;15.87;10.00;;;;;;;;;;5050696;28;20278;-46
2022/09/12 03:58:46;;;;;;;13.67;9.53;;;;;;;;;;5050912;28;20226;-47
2022/09/12 04:01:14;;;;;;;11.43;9.10;;;;;;;;;;5050629;28;20244;-47
2022/09/12 04:03:41;;;;;;;10.73;9.63;;;;;;;;;;5050853;28;20196;-46
2022/09/12 04:06:07;;;;;;;11.40;10.07;;;;;;;;;;5050758;28;20199;-46
2022/09/12 04:08:33;;;;;;;10.20;9.20;;;;;;;;;;5050157;28;20573;-47
2022/09/12 04:11:03;;;;;;;10.23;9.10;;;;;;;;;;5050101;28;20211;-46
2022/09/12 04:13:29;;;;;;;9.47;7.63;;;;;;;;;;5050687;28;20274;-46
2022/09/12 04:15:56;;;;;;;9.40;8.50;;;;;;;;;;5050404;28;20596;-46
2022/09/12 04:18:23;;;;;;;9.63;8.53;;;;;;;;;;5049603;28;20215;-48
2022/09/12 04:20:49;;;;;;;8.30;7.50;;;;;;;;;;5050799;28;20208;-46
2022/09/12 04:23:15;;;;;;;7.80;7.10;;;;;;;;;;5050267;28;20202;-48
2022/09/12 04:25:41;;;;;;;7.87;7.13;;;;;;;;;;5050342;28;20242;-46
2022/09/12 04:28:07;;;;;;;8.60;6.97;;;;;;;;;;5051365;28;20200;-49
2022/09/12 04:30:33;;;;;;;7.17;6.57;;;;;;;;;;5054771;28;20191;-47
2022/09/12 04:32:59;;;;;;;6.90;6.23;;;;;;;;;;5054373;28;20250;-48
2022/09/12 04:35:26;;;;;;;7.10;6.40;;;;;;;;;;5054550;28;20617;-49
2022/09/12 04:37:52;;;;;;;7.00;6.30;;;;;;;;;;5054504;28;20204;-48
2022/09/12 04:40:18;;;;;;;6.60;6.00;;;;;;;;;;5053568;28;20219;-48
2022/09/12 04:42:44;;;;;;;7.03;6.33;;;;;;;;;;5054380;28;20204;-49
2022/09/12 04:45:11;;;;;;;7.00;6.27;;;;;;;;;;5054604;28;20208;-46
2022/09/12 04:47:37;;;;;;;6.90;6.30;;;;;;;;;;5054181;28;20567;-48
2022/09/12 04:50:04;;;;;;;6.33;5.73;;;;;;;;;;5054369;28;20212;-47
2022/09/12 04:52:31;;;;;;;6.83;6.20;;;;;;;;;;5054170;28;20200;-46
2022/09/12 04:54:57;;;;;;;6.90;6.30;;;;;;;;;;5054121;28;20234;-47
2022/09/12 04:57:24;;;;;;;6.73;6.03;;;;;;;;;;5054198;28;20884;-47
2022/09/12 04:59:50;;;;;;;5.90;5.30;;;;;;;;;;5054078;28;20263;-46
2022/09/12 05:02:16;;;;;;;7.93;5.93;;;;;;;;;;5053533;28;20196;-46
2022/09/12 05:04:42;;;;;;;6.40;5.70;;;;;;;;;;5054066;28;20275;-47
2022/09/12 05:07:08;;;;;;;7.10;5.30;;;;;;;;;;5053785;28;20299;-47
2022/09/12 05:09:36;;;;;;;6.10;5.50;;;;;;;;;;5054157;28;20207;-47
2022/09/12 05:12:03;;;;;;;5.90;4.90;;;;;;;;;;5053649;28;20667;-47
2022/09/12 05:14:30;;;;;;;6.20;5.60;;;;;;;;;;5051339;28;20303;-48
2022/09/12 05:16:59;;;;;;;6.70;5.17;;;;;;;;;;5050786;28;20693;-47
2022/09/12 05:19:25;;;;;;;6.33;5.67;;;;;;;;;;5053454;28;20700;-47
2022/09/12 05:21:51;;;;;;;6.50;5.67;;;;;;;;;;5053510;28;20192;-47
2022/09/12 05:24:17;;;;;;;6.67;6.10;;;;;;;;;;5053592;28;20662;-48
2022/09/12 05:26:44;;;;;;;7.33;5.73;;;;;;;;;;5053547;28;20192;-48
2022/09/12 05:29:11;;;;;;;6.13;5.50;;;;;;;;;;5053019;28;20216;-48
2022/09/12 05:31:38;;;;;;;6.40;5.80;;;;;;;;;;5053486;28;20655;-48
2022/09/12 05:34:05;;;;;;;5.83;5.10;;;;;;;;;;5052898;28;20277;-48
2022/09/12 05:36:32;;;;;;;6.30;5.70;;;;;;;;;;5053336;28;20254;-47
2022/09/12 05:38:58;;;;;;;5.97;5.40;;;;;;;;;;5053153;28;20211;-48
2022/09/12 05:41:25;;;;;;;6.93;5.83;;;;;;;;;;5052338;28;20200;-45
2022/09/12 05:43:53;;;;;;;6.60;6.00;;;;;;;;;;5052919;28;20275;-47
2022/09/12 05:46:20;;;;;;;6.50;5.80;;;;;;;;;;5052544;28;20206;-48
2022/09/12 05:48:47;;;;;;;6.70;6.10;;;;;;;;;;5053234;28;20220;-46
2022/09/12 05:51:17;;;;;;;6.43;5.40;;;;;;;;;;5053097;28;20200;-48
2022/09/12 05:53:44;;;;;;;5.93;5.43;;;;;;;;;;5052942;28;20307;-48
2022/09/12 05:56:11;;;;;;;8.63;5.17;;;;;;;;;;5053342;28;20200;-48
2022/09/12 05:58:38;;;;;;;6.33;5.73;;;;;;;;;;5053194;28;20203;-48
2022/09/12 06:01:07;;;;;;;7.27;6.57;;;;;;;;;;5052841;28;20311;-48
2022/09/12 06:03:33;;;;;;;8.43;6.47;;;;;;;;;;5053346;28;20617;-48
2022/09/12 06:06:01;;;;;;;7.93;7.13;;;;;;;;;;5052861;28;20192;-48
2022/09/12 06:08:27;;;;;;;9.20;7.63;;;;;;;;;;5052772;28;20686;-48
2022/09/12 06:10:58;;;;;;;9.00;8.00;;;;;;;;;;5052677;28;20254;-48
2022/09/12 06:13:24;;;;;;;9.23;8.33;;;;;;;;;;5052414;28;20228;-48
2022/09/12 06:15:50;;;;;;;9.50;8.50;;;;;;;;;;5052670;28;20246;-48
2022/09/12 06:18:17;;;;;;;12.60;8.30;;;;;;;;;;5052425;28;20203;-49
2022/09/12 06:20:43;;;;;;;9.27;8.33;;;;;;;;;;5052562;28;20208;-48
2022/09/12 06:23:09;;;;;;;9.03;7.80;;;;;;;;;;5052137;28;20215;-46
2022/09/12 06:25:35;;;;;;;9.57;8.27;;;;;;;;;;5052233;28;20204;-48
2022/09/12 06:28:01;;;;;;;9.80;8.57;;;;;;;;;;5052408;28;20283;-47
2022/09/12 06:30:27;;;;;;;10.93;9.83;;;;;;;;;;5052779;28;20210;-47
2022/09/12 06:32:55;;;;;;;13.73;12.33;;;;;;;;;;5051901;28;20570;-47
2022/09/12 06:35:23;;;;;;;12.07;10.17;;;;;;;;;;5052279;28;20204;-47
2022/09/12 06:37:49;;;;;;;13.57;11.90;;;;;;;;;;5051754;28;20582;-47
2022/09/12 06:40:15;;;;;;;16.90;11.80;;;;;;;;;;5051386;28;20215;-47
2022/09/12 06:42:41;;;;;;;15.07;11.33;;;;;;;;;;5051868;28;20232;-48
2022/09/12 06:45:07;;;;;;;16.03;12.73;;;;;;;;;;5052058;28;20819;-47
2022/09/12 06:47:34;;;;;;;15.97;12.63;;;;;;;;;;5052517;28;20253;-47
2022/09/12 06:50:00;;;;;;;13.43;12.03;;;;;;;;;;5051349;28;20608;-47
2022/09/12 06:52:28;;;;;;;16.97;13.17;;;;;;;;;;5051038;28;20274;-47
2022/09/12 06:54:54;;;;;;;19.17;13.27;;;;;;;;;;5052175;28;20231;-48
2022/09/12 06:57:19;;;;;;;12.90;11.33;;;;;;;;;;5051100;28;20204;-47
2022/09/12 06:59:46;;;;;;;16.07;12.63;;;;;;;;;;5051023;28;20240;-47
2022/09/12 07:02:12;;;;;;;15.30;13.40;;;;;;;;;;5051674;28;20195;-48
2022/09/12 07:04:37;;;;;;;16.30;12.80;;;;;;;;;;5051215;28;20558;-47
2022/09/12 07:07:04;;;;;;;13.93;12.43;;;;;;;;;;5051130;28;20243;-47
2022/09/12 07:09:32;;;;;;;12.77;11.37;;;;;;;;;;5051589;28;20195;-45
2022/09/12 07:11:58;;;;;;;13.07;11.47;;;;;;;;;;5051665;28;20204;-48
2022/09/12 07:14:24;;;;;;;12.20;10.70;;;;;;;;;;5051672;28;20231;-47
2022/09/12 07:16:50;;;;;;;11.43;10.33;;;;;;;;;;5050354;28;20204;-47
2022/09/12 07:19:16;;;;;;;13.93;12.20;;;;;;;;;;5049876;28;20955;-48
2022/09/12 07:21:43;;;;;;;13.93;12.53;;;;;;;;;;5051213;28;20196;-47
2022/09/12 07:24:10;;;;;;;13.00;11.70;;;;;;;;;;5051198;28;20196;-47
2022/09/12 07:26:37;;;;;;;15.47;12.93;;;;;;;;;;5050744;28;20841;-47
2022/09/12 07:29:04;;;;;;;14.73;12.97;;;;;;;;;;5050830;28;20662;-47
2022/09/12 07:31:30;;;;;;;13.53;12.13;;;;;;;;;;5049738;28;20208;-46
2022/09/12 07:33:56;;;;;;;14.53;12.60;;;;;;;;;;5049829;28;20231;-47
2022/09/12 07:36:24;;;;;;;14.20;12.37;;;;;;;;;;5051124;28;20615;-48
2022/09/12 07:39:00;;;;;;;13.90;12.33;;;;;;;;;;5050297;28;20246;-47
2022/09/12 07:41:27;;;;;;;11.73;10.63;;;;;;;;;;5051443;28;20219;-48
2022/09/12 07:43:55;;;;;;;13.00;11.17;;;;;;;;;;5050534;28;20188;-49
2022/09/12 07:46:22;;;;;;;12.23;10.90;;;;;;;;;;5050994;28;20682;-49
2022/09/12 07:48:51;;;;;;;10.73;9.70;;;;;;;;;;5049793;28;20200;-47
2022/09/12 07:51:18;;;;;;;11.43;10.07;;;;;;;;;;5049988;28;20255;-47
2022/09/12 07:53:44;;;;;;;9.80;8.30;;;;;;;;;;5048523;28;20225;-53
2022/09/12 07:56:10;;;;;;;13.90;10.93;;;;;;;;;;5066724;28;20269;-48
2022/09/12 07:58:37;;;;;;;13.60;11.57;;;;;;;;;;5069977;28;20259;-48
2022/09/12 08:01:06;;;;;;;11.30;10.10;;;;;;;;;;5067575;28;20238;-47
2022/09/12 08:03:32;;;;;;;13.60;11.43;;;;;;;;;;5068412;28;20258;-47
2022/09/12 08:06:02;;;;;;;12.93;11.63;;;;;;;;;;5070622;28;20267;-48
2022/09/12 08:08:28;;;;;;;11.93;10.63;;;;;;;;;;5064921;28;20231;-49
2022/09/12 08:10:56;;;;;;;16.63;14.73;;;;;;;;;;5069541;28;20562;-48
2022/09/12 08:13:22;;;;;;;11.63;10.43;;;;;;;;;;5069979;28;20203;-48
2022/09/12 08:15:48;;;;;;;10.00;8.87;;;;;;;;;;5070317;28;20204;-47
2022/09/12 08:18:15;;;;;;;10.40;9.30;;;;;;;;;;5070532;28;20202;-48
2022/09/12 08:20:42;;;;;;;9.03;7.90;;;;;;;;;;5070152;28;20206;-48
2022/09/12 08:23:08;;;;;;;9.97;8.00;;;;;;;;;;5067250;28;20199;-49
2022/09/12 08:25:34;;;;;;;10.70;6.97;;;;;;;;;;5070546;28;20255;-48
2022/09/12 08:28:00;;;;;;;9.40;7.90;;;;;;;;;;5070961;28;20191;-48
2022/09/12 08:30:26;;;;;;;8.57;7.63;;;;;;;;;;5070710;28;20199;-48
2022/09/12 08:32:52;;;;;;;6.97;6.17;;;;;;;;;;5070804;28;20206;-49
2022/09/12 08:35:19;;;;;;;7.73;6.00;;;;;;;;;;5070538;28;20321;-48
2022/09/12 08:37:45;;;;;;;6.97;6.27;;;;;;;;;;5070636;28;20295;-48
2022/09/12 08:40:14;;;;;;;5.70;5.10;;;;;;;;;;5070639;28;20282;-48
2022/09/12 08:42:45;;;;;;;6.10;5.43;;;;;;;;;;5070784;28;20196;-48
2022/09/12 08:45:16;;;;;;;6.37;5.77;;;;;;;;;;5070783;28;20192;-48
2022/09/12 08:47:43;;;;;;;5.73;5.23;;;;;;;;;;5070602;28;20199;-48
2022/09/12 08:50:14;;;;;;;4.70;4.27;;;;;;;;;;5070717;28;20287;-48
2022/09/12 08:52:44;;;;;;;5.97;4.30;;;;;;;;;;5070781;28;20230;-48
2022/09/12 08:55:16;;;;;;;5.87;4.43;;;;;;;;;;5070731;28;20267;-48
2022/09/12 08:57:42;;;;;;;6.53;4.33;;;;;;;;;;5070618;28;20535;-48
2022/09/12 09:00:13;;;;;;;4.47;3.73;;;;;;;;;;5070090;28;20235;-52
2022/09/12 09:02:49;;;;;;;5.27;4.03;;;;;;;;;;5070267;28;20615;-48
2022/09/12 09:05:19;;;;;;;4.77;4.07;;;;;;;;;;5070288;28;20240;-48
2022/09/12 09:08:02;;;;;;;6.53;4.70;;;;;;;;;;5070445;28;20243;-48
2022/09/12 09:10:35;;;;;;;6.07;4.67;;;;;;;;;;5070110;28;20207;-48
2022/09/12 09:13:03;;;;;;;6.80;5.23;;;;;;;;;;5070230;28;20283;-48
2022/09/12 09:15:39;;;;;;;5.70;5.10;;;;;;;;;;5071610;28;20289;-48
2022/09/12 09:18:10;;;;;;;8.10;4.80;;;;;;;;;;5073678;28;20294;-48
2022/09/12 09:20:40;;;;;;;5.67;4.97;;;;;;;;;;5074031;28;20539;-48
2022/09/12 09:23:08;;;;;;;5.67;5.07;;;;;;;;;;5073798;28;20568;-48
2022/09/12 09:25:42;;;;;;;4.97;3.97;;;;;;;;;;5073905;28;20199;-48
2022/09/12 09:28:13;;;;;;;4.23;3.83;;;;;;;;;;5073910;28;20218;-48
2022/09/12 09:30:40;;;;;;;4.97;4.23;;;;;;;;;;5073817;28;20203;-48
2022/09/12 09:33:09;;;;;;;6.37;3.83;;;;;;;;;;5073388;28;20199;-48
2022/09/12 09:35:43;;;;;;;5.50;3.90;;;;;;;;;;5073194;28;20662;-48
2022/09/12 09:38:18;;;;;;;4.73;3.80;;;;;;;;;;5073169;28;20202;-48
2022/09/12 09:40:50;;;;;;;5.60;3.83;;;;;;;;;;5073372;28;20300;-48
2022/09/12 09:43:21;;;;;;;4.63;3.90;;;;;;;;;;5073266;28;20286;-48
2022/09/12 09:45:47;;;;;;;3.67;3.30;;;;;;;;;;5073092;28;20206;-48
2022/09/12 09:48:16;;;;;;;4.13;3.73;;;;;;;;;;5073234;28;20203;-48
2022/09/12 09:50:42;;;;;;;5.00;3.83;;;;;;;;;;5073097;28;20196;-48
2022/09/12 09:53:11;;;;;;;4.13;3.47;;;;;;;;;;5072986;28;20670;-48
2022/09/12 09:55:39;;;;;;;5.43;3.60;;;;;;;;;;5073058;28;20202;-48
2022/09/12 09:58:06;;;;;;;4.30;3.50;;;;;;;;;;5072552;28;20203;-48
2022/09/12 10:00:34;;;;;;;4.20;3.80;;;;;;;;;;5072512;28;20316;-48
2022/09/12 10:03:04;;;;;;;4.83;3.40;;;;;;;;;;5072690;28;20195;-48
2022/09/12 10:05:32;;;;;;;4.43;3.83;;;;;;;;;;5072847;28;20211;-48
2022/09/12 10:07:58;;;;;;;4.90;3.40;;;;;;;;;;5072649;28;20215;-48
2022/09/12 10:10:24;;;;;;;3.83;3.30;;;;;;;;;;5072984;28;20226;-48
2022/09/12 10:12:50;;;;;;;4.37;3.17;;;;;;;;;;5072876;28;20737;-48
2022/09/12 10:15:20;;;;;;;3.70;3.30;;;;;;;;;;5072602;28;20321;-48
2022/09/12 10:17:46;;;;;;;10.83;3.90;;;;;;;;;;5072813;28;20424;-48
2022/09/12 10:20:27;;;;;;;4.47;3.43;;;;;;;;;;5072567;28;20218;-48
2022/09/12 10:22:53;;;;;;;3.43;2.87;;;;;;;;;;5072645;28;20535;-48
2022/09/12 10:25:20;;;;;;;4.60;3.20;;;;;;;;;;5072656;28;20635;-48
2022/09/12 10:27:51;;;;;;;5.37;3.33;;;;;;;;;;5072147;28;20199;-48
2022/09/12 10:30:20;;;;;;;5.80;3.30;;;;;;;;;;5072420;28;20205;-48
2022/09/12 10:32:52;;;;;;;3.30;3.00;;;;;;;;;;5072435;28;20212;-48
2022/09/12 10:35:20;;;;;;;4.33;3.03;;;;;;;;;;5072231;28;20231;-48
2022/09/12 10:37:52;;;;;;;3.90;3.30;;;;;;;;;;5072419;28;20196;-48
2022/09/12 10:40:22;;;;;;;6.33;3.20;;;;;;;;;;5072273;28;20192;-48
2022/09/12 10:42:49;;;;;;;4.63;3.00;;;;;;;;;;5072051;28;20195;-48
2022/09/12 10:45:24;;;;;;;6.33;3.07;;;;;;;;;;5071922;28;20234;-48
2022/09/12 10:47:50;;;;;;;3.90;3.07;;;;;;;;;;5072098;28;20203;-48
2022/09/12 10:50:19;;;;;;;6.17;3.37;;;;;;;;;;5072016;28;20217;-48
2022/09/12 10:52:45;;;;;;;3.83;3.20;;;;;;;;;;5072142;28;20191;-48
2022/09/12 10:55:13;;;;;;;6.17;3.40;;;;;;;;;;5072005;28;20271;-48
2022/09/12 10:57:56;;;;;;;5.33;3.50;;;;;;;;;;5072093;28;20286;-48
2022/09/12 11:00:26;;;;;;;3.27;2.90;;;;;;;;;;5071442;28;20319;-48
2022/09/12 11:02:57;;;;;;;3.33;2.87;;;;;;;;;;5071696;28;20203;-48
2022/09/12 11:05:36;;;;;;;4.60;3.10;;;;;;;;;;5071494;28;20219;-48
2022/09/12 11:08:06;;;;;;;3.13;2.83;;;;;;;;;;5071639;28;20688;-47
2022/09/12 11:10:37;;;;;;;4.00;3.30;;;;;;;;;;5071670;28;20206;-47
2022/09/12 11:13:10;;;;;;;3.70;3.37;;;;;;;;;;5071621;28;20199;-47
2022/09/12 11:15:46;;;;;;;3.33;3.03;;;;;;;;;;5071502;28;20257;-48
2022/09/12 11:18:17;;;;;;;5.27;2.97;;;;;;;;;;5071251;28;20226;-48
2022/09/12 11:20:53;;;;;;;3.70;3.10;;;;;;;;;;5071377;28;20212;-47
2022/09/12 11:23:31;;;;;;;3.80;3.40;;;;;;;;;;5071354;28;20227;-47
2022/09/12 11:25:59;;;;;;;3.33;3.03;;;;;;;;;;5071083;28;20280;-48
2022/09/12 11:28:30;;;;;;;4.33;3.90;;;;;;;;;;5071059;28;20281;-49
2022/09/12 11:31:08;;;;;;;5.27;3.13;;;;;;;;;;5070942;28;20220;-47
2022/09/12 11:33:39;;;;;;;3.60;3.30;;;;;;;;;;5070688;28;20226;-48
2022/09/12 11:36:08;;;;;;;6.00;3.93;;;;;;;;;;5066644;28;20200;-48
2022/09/12 11:38:47;;;;;;;3.57;3.23;;;;;;;;;;5069607;28;20245;-47
2022/09/12 11:41:17;;;;;;;4.27;3.40;;;;;;;;;;5066432;28;20238;-46
2022/09/12 11:43:45;;;;;;;6.50;3.60;;;;;;;;;;5068023;28;20239;-48
2022/09/12 11:46:16;;;;;;;2.97;2.60;;;;;;;;;;5069885;28;20183;-51
2022/09/12 11:48:46;;;;;;;3.40;3.10;;;;;;;;;;5066797;28;20204;-48
2022/09/12 11:51:17;;;;;;;5.03;3.20;;;;;;;;;;5066053;28;20375;-48
2022/09/12 11:53:44;;;;;;;4.77;3.07;;;;;;;;;;5069244;28;20302;-50
2022/09/12 11:56:13;;;;;;;4.30;3.13;;;;;;;;;;5067442;28;20208;-49
2022/09/12 11:58:40;;;;;;;3.50;3.20;;;;;;;;;;5067503;28;20538;-49
2022/09/12 12:01:10;;;;;;;3.93;3.53;;;;;;;;;;5066099;28;20223;-49
2022/09/12 12:03:40;;;;;;;4.33;2.67;;;;;;;;;;5070006;28;20251;-49
2022/09/12 12:06:10;;;;;;;3.80;2.43;;;;;;;;;;5069967;28;20624;-48
2022/09/12 12:08:38;;;;;;;3.53;2.60;;;;;;;;;;5068230;28;20220;-47
2022/09/12 12:11:04;;;;;;;3.13;2.43;;;;;;;;;;5070588;28;20192;-47
2022/09/12 12:13:32;;;;;;;2.97;2.67;;;;;;;;;;5070389;28;20211;-47
2022/09/12 12:16:00;;;;;;;2.40;2.20;;;;;;;;;;5069000;28;20337;-47
2022/09/12 12:18:27;;;;;;;2.57;2.37;;;;;;;;;;5070171;28;20233;-48
2022/09/12 12:20:55;;;;;;;2.50;2.30;;;;;;;;;;5070522;28;20203;-48
2022/09/12 12:23:27;;;;;;;4.07;2.40;;;;;;;;;;5070519;28;20224;-48
2022/09/12 12:25:54;;;;;;;5.10;2.87;;;;;;;;;;5070332;28;20202;-48
2022/09/12 12:28:38;;;;;;;3.50;2.20;;;;;;;;;;5070552;28;20246;-48
2022/09/12 12:31:05;;;;;;;1.90;1.73;;;;;;;;;;5069259;28;20830;-48
2022/09/12 12:33:49;;;;;;;4.57;4.17;;;;;;;;;;5070463;28;20201;-48
2022/09/12 12:36:30;;;;;;;3.10;2.20;;;;;;;;;;5070288;28;20229;-48
2022/09/12 12:38:56;;;;;;;2.50;2.13;;;;;;;;;;5069997;28;20651;-48
2022/09/12 12:41:40;;;;;;;3.00;2.27;;;;;;;;;;5070187;28;20719;-48
2022/09/12 12:44:21;;;;;;;3.57;1.90;;;;;;;;;;5070526;28;20178;-47
2022/09/12 12:47:07;;;;;;;3.10;2.00;;;;;;;;;;5070067;28;20582;-48
2022/09/12 12:49:33;;;;;;;4.27;2.33;;;;;;;;;;5070236;28;20699;-49
2022/09/12 12:52:01;;;;;;;4.17;1.90;;;;;;;;;;5073941;28;20287;-48
2022/09/12 12:54:48;;;;;;;1.90;1.70;;;;;;;;;;5073912;28;20226;-48
2022/09/12 12:57:26;;;;;;;4.07;2.10;;;;;;;;;;5073635;28;20695;-48
2022/09/12 12:59:54;;;;;;;2.63;2.20;;;;;;;;;;5073437;28;20290;-48
2022/09/12 13:02:23;;;;;;;2.33;2.13;;;;;;;;;;5073689;28;20587;-47
2022/09/12 13:04:49;;;;;;;2.17;1.97;;;;;;;;;;5074070;28;20193;-48
2022/09/12 13:07:25;;;;;;;2.90;2.23;;;;;;;;;;5073833;28;20228;-48
2022/09/12 13:09:51;;;;;;;4.13;1.87;;;;;;;;;;5073908;28;20640;-48
2022/09/12 13:12:19;;;;;;;3.63;2.47;;;;;;;;;;5073965;28;20198;-48
2022/09/12 13:14:54;;;;;;;2.33;1.77;;;;;;;;;;5073898;28;20232;-48
2022/09/12 13:17:35;;;;;;;2.23;1.80;;;;;;;;;;5073755;28;20213;-48
2022/09/12 13:20:05;;;;;;;1.93;1.73;;;;;;;;;;5071416;28;20196;-48
2022/09/12 13:22:40;;;;;;;4.57;2.27;;;;;;;;;;5073456;28;20201;-48
2022/09/12 13:25:17;;;;;;;2.77;1.70;;;;;;;;;;5073377;28;20197;-47
2022/09/12 13:27:55;;;;;;;2.10;1.90;;;;;;;;;;5073540;28;20660;-48
2022/09/12 13:30:21;;;;;;;2.00;1.80;;;;;;;;;;5073664;28;20195;-48
2022/09/12 13:32:47;;;;;;;1.90;1.80;;;;;;;;;;5073735;28;20194;-48
2022/09/12 13:35:18;;;;;;;2.13;1.87;;;;;;;;;;5073100;28;20698;-48
2022/09/12 13:37:48;;;;;;;2.10;1.80;;;;;;;;;;5073646;28;20734;-48
2022/09/12 13:40:27;;;;;;;1.87;1.73;;;;;;;;;;5073406;28;20602;-48
2022/09/12 13:43:05;;;;;;;3.50;2.00;;;;;;;;;;5073159;28;20273;-48
2022/09/12 13:45:34;;;;;;;2.80;1.80;;;;;;;;;;5073359;28;20683;-48
2022/09/12 13:48:01;;;;;;;2.07;1.80;;;;;;;;;;5073248;28;20285;-49
2022/09/12 13:50:28;;;;;;;3.00;2.13;;;;;;;;;;5073333;28;20636;-48
2022/09/12 13:52:57;;;;;;;3.13;2.13;;;;;;;;;;5073036;28;20209;-48
2022/09/12 13:55:28;;;;;;;1.87;1.77;;;;;;;;;;5072880;28;20287;-48
2022/09/12 13:57:58;;;;;;;2.00;1.90;;;;;;;;;;5073336;28;20202;-48
2022/09/12 14:00:24;;;;;;;2.00;1.80;;;;;;;;;;5072404;28;20248;-48
2022/09/12 14:05:38;;;;;;;1.90;1.80;;;;;;;;;;5072594;28;20204;-48
2022/09/12 14:08:07;;;;;;;2.63;1.73;;;;;;;;;;5072682;28;20765;-47
2022/09/12 14:10:34;;;;;;;2.73;2.10;;;;;;;;;;5072537;28;20232;-47
2022/09/12 14:13:01;;;;;;;1.80;1.70;;;;;;;;;;5071983;28;20206;-47
2022/09/12 14:15:29;;;;;;;3.10;1.80;;;;;;;;;;5068175;28;20687;-48
2022/09/12 14:18:00;;;;;;;3.17;2.10;;;;;;;;;;5072199;28;20202;-47
2022/09/12 14:20:30;;;;;;;1.70;1.60;;;;;;;;;;5072084;28;20324;-49
2022/09/12 14:22:58;;;;;;;2.00;1.90;;;;;;;;;;5072004;28;20226;-49
2022/09/12 14:25:28;;;;;;;2.10;1.90;;;;;;;;;;5072332;28;20237;-49
2022/09/12 14:27:55;;;;;;;5.00;1.73;;;;;;;;;;5072362;28;20654;-48
2022/09/12 14:30:23;;;;;;;3.63;1.63;;;;;;;;;;5072084;28;20202;-49
2022/09/12 14:33:15;;;;;;;2.23;1.70;;;;;;;;;;5072555;28;20208;-48
2022/09/12 14:35:42;;;;;;;2.73;2.07;;;;;;;;;;5072469;28;20582;-49
2022/09/12 14:38:13;;;;;;;3.37;2.10;;;;;;;;;;5071302;28;20202;-49
2022/09/12 14:40:42;;;;;;;2.20;1.97;;;;;;;;;;5072255;28;20190;-48
2022/09/12 14:43:17;;;;;;;1.83;1.73;;;;;;;;;;5071782;28;20543;-48
2022/09/12 14:45:43;;;;;;;2.10;1.83;;;;;;;;;;5071467;28;20202;-48
2022/09/12 14:48:15;;;;;;;4.93;1.97;;;;;;;;;;5071609;28;20243;-48
2022/09/12 14:50:41;;;;;;;2.83;2.43;;;;;;;;;;5071908;28;20200;-49